Terminal Aerodrome Forecast
Issued by NWS Sioux Falls, SD

Home | Current Version | Previous Version | Graphics & Text | Print | Product List | Glossary On
Versions: 1 2 3 4 5 6 7 8 9 10 11 12 13 14 15
000
FTUS43 KFSD 232300
TAFFSD
TAF
KFSD 232320Z 2400/2424 15018G29KT P6SM BKN050
     FM240130 12013KT P6SM BKN050
     FM240400 11010KT P6SM -SHRA OVC040
      TEMPO 2404/2406 6SM -TSRA OVC030CB
     FM240700 33008KT P6SM -RA BKN030
     FM241000 33012KT P6SM BKN060
     FM241400 33014G20KT P6SM SCT070
     FM241800 32017G26KT P6SM SKC=

USA.gov is the U.S. government's official web portal to all federal, state and local government web resources and services.